WZZ56 EETN-LHBP
Flight info
| Callsign | WZZ56 |
|---|---|
| Flight time | 2h 2m |
| Altitude | 34000 |
| Route | ORTAX DCT LUTAL P870 BERIL/N0457F330 DCT BOKSU/N0455F340 DCT SUWGI DCT TITUV DCT EVINA/N0458F330 DCT KELEL/N0461F320 DCT EDEMU |
| Aircraft | A21N/M-SDE2E3FGHIRWXY/LB1 |
Departure
| Time | 2026-05-07 12:49 |
|---|---|
| Airport | Lennart Meri Tallinn Airport (EETN) |
Arrival
| Time | 2026-05-07 14:51 |
|---|---|
| Airport | Budapest Liszt Ferenc International Airport (LHBP) |
| Time | Latitude | Longitude | Altitude | Speed | Heading |
|---|---|---|---|---|---|
| 2026-05-07 12:24 | 59.41694 | 24.80051 | 167 ft | 0 kts | 180° |
| 2026-05-07 12:41 | 59.41701 | 24.80051 | 167 ft | 4 kts | 174° |
| 2026-05-07 12:41 | 59.41717 | 24.80049 | 167 ft | 4 kts | 189° |
| 2026-05-07 12:41 | 59.41736 | 24.80065 | 167 ft | 4 kts | 210° |
| 2026-05-07 12:41 | 59.41755 | 24.80073 | 167 ft | 4 kts | 142° |
| 2026-05-07 12:42 | 59.41756 | 24.80073 | 167 ft | 4 kts | 131° |
| 2026-05-07 12:42 | 59.41749 | 24.80119 | 167 ft | 4 kts | 95° |
| 2026-05-07 12:42 | 59.41749 | 24.80153 | 167 ft | 1 kts | 90° |
| 2026-05-07 12:44 | 59.41749 | 24.80166 | 167 ft | 3 kts | 90° |
| 2026-05-07 12:45 | 59.41749 | 24.80225 | 167 ft | 6 kts | 90° |
| 2026-05-07 12:45 | 59.41745 | 24.80312 | 167 ft | 7 kts | 97° |
| 2026-05-07 12:45 | 59.41736 | 24.80415 | 167 ft | 8 kts | 110° |
| 2026-05-07 12:45 | 59.41693 | 24.80500 | 167 ft | 10 kts | 156° |
| 2026-05-07 12:46 | 59.41622 | 24.80512 | 167 ft | 11 kts | 179° |
| 2026-05-07 12:46 | 59.41540 | 24.80507 | 167 ft | 12 kts | 190° |
| 2026-05-07 12:46 | 59.41471 | 24.80475 | 167 ft | 7 kts | 185° |
| 2026-05-07 12:46 | 59.41421 | 24.80509 | 167 ft | 8 kts | 143° |
| 2026-05-07 12:47 | 59.41377 | 24.80597 | 166 ft | 9 kts | 133° |
| 2026-05-07 12:47 | 59.41336 | 24.80704 | 165 ft | 11 kts | 107° |
| 2026-05-07 12:47 | 59.41332 | 24.80777 | 166 ft | 0 kts | 90° |
| 2026-05-07 12:48 | 59.41331 | 24.80954 | 165 ft | 41 kts | 90° |
| 2026-05-07 12:48 | 59.41329 | 24.81987 | 168 ft | 110 kts | 90° |
| 2026-05-07 12:49 | 59.41327 | 24.83917 | 210 ft | 167 kts | 86° |
| 2026-05-07 12:49 | 59.41323 | 24.86206 | 870 ft | 170 kts | 87° |
| 2026-05-07 12:49 | 59.41307 | 24.88524 | 1761 ft | 168 kts | 91° |
| 2026-05-07 12:49 | 59.40928 | 24.90740 | 2335 ft | 184 kts | 126° |
| 2026-05-07 12:50 | 59.39771 | 24.92138 | 2694 ft | 213 kts | 162° |
| 2026-05-07 12:50 | 59.38383 | 24.92137 | 3119 ft | 237 kts | 195° |
| 2026-05-07 12:50 | 59.36829 | 24.90601 | 3538 ft | 262 kts | 211° |
| 2026-05-07 12:50 | 59.35241 | 24.88661 | 4244 ft | 272 kts | 211° |
| 2026-05-07 12:51 | 59.33629 | 24.86721 | 5226 ft | 270 kts | 210° |
| 2026-05-07 12:51 | 59.32020 | 24.84832 | 6201 ft | 269 kts | 210° |
| 2026-05-07 12:51 | 59.30399 | 24.82956 | 7003 ft | 273 kts | 210° |
| 2026-05-07 12:51 | 59.28745 | 24.81060 | 7721 ft | 278 kts | 210° |
| 2026-05-07 12:52 | 59.27067 | 24.79148 | 8532 ft | 279 kts | 210° |
| 2026-05-07 12:52 | 59.25366 | 24.77221 | 9271 ft | 284 kts | 211° |
| 2026-05-07 12:52 | 59.23660 | 24.75291 | 9973 ft | 289 kts | 211° |
| 2026-05-07 12:52 | 59.21882 | 24.73286 | 10440 ft | 303 kts | 212° |
| 2026-05-07 12:53 | 59.20010 | 24.71177 | 10730 ft | 321 kts | 211° |
| 2026-05-07 12:53 | 59.18020 | 24.68940 | 10989 ft | 339 kts | 211° |
| 2026-05-07 12:53 | 59.15916 | 24.66576 | 11245 ft | 357 kts | 211° |
| 2026-05-07 12:53 | 59.13701 | 24.64096 | 11477 ft | 374 kts | 211° |
| 2026-05-07 12:54 | 59.11397 | 24.61518 | 11711 ft | 389 kts | 211° |
| 2026-05-07 12:54 | 59.09059 | 24.58910 | 12102 ft | 395 kts | 211° |
| 2026-05-07 12:54 | 59.06675 | 24.56257 | 12675 ft | 396 kts | 211° |
| 2026-05-07 12:54 | 59.04284 | 24.53596 | 13242 ft | 397 kts | 212° |
| 2026-05-07 12:55 | 59.01875 | 24.50922 | 13828 ft | 398 kts | 212° |
| 2026-05-07 12:55 | 58.99473 | 24.48256 | 14296 ft | 400 kts | 212° |
| 2026-05-07 12:55 | 58.97049 | 24.45571 | 14797 ft | 401 kts | 212° |
| 2026-05-07 12:55 | 58.94617 | 24.42880 | 15369 ft | 403 kts | 212° |
| 2026-05-07 12:56 | 58.92178 | 24.40189 | 15978 ft | 404 kts | 212° |
| 2026-05-07 12:56 | 58.89738 | 24.37503 | 16585 ft | 405 kts | 212° |
| 2026-05-07 12:56 | 58.87284 | 24.34804 | 17186 ft | 406 kts | 212° |
| 2026-05-07 12:56 | 58.84757 | 24.32340 | 17776 ft | 410 kts | 206° |
| 2026-05-07 12:57 | 58.82001 | 24.30760 | 18315 ft | 416 kts | 197° |
| 2026-05-07 12:57 | 58.79163 | 24.29566 | 18772 ft | 418 kts | 196° |
| 2026-05-07 12:57 | 58.76312 | 24.28390 | 19222 ft | 419 kts | 197° |
| 2026-05-07 12:57 | 58.73453 | 24.27176 | 19679 ft | 420 kts | 197° |
| 2026-05-07 12:58 | 58.70591 | 24.25941 | 20115 ft | 421 kts | 197° |
| 2026-05-07 12:58 | 58.67725 | 24.24695 | 20533 ft | 423 kts | 197° |
| 2026-05-07 12:58 | 58.64852 | 24.23443 | 20931 ft | 424 kts | 197° |
| 2026-05-07 12:58 | 58.61977 | 24.22190 | 21398 ft | 426 kts | 197° |
| 2026-05-07 12:59 | 58.59076 | 24.20928 | 21860 ft | 427 kts | 197° |
| 2026-05-07 12:59 | 58.56207 | 24.19683 | 22274 ft | 429 kts | 197° |
| 2026-05-07 12:59 | 58.53290 | 24.18420 | 22672 ft | 431 kts | 197° |
| 2026-05-07 12:59 | 58.50365 | 24.17154 | 23077 ft | 432 kts | 197° |
| 2026-05-07 13:00 | 58.47425 | 24.15886 | 23459 ft | 434 kts | 197° |
| 2026-05-07 13:00 | 58.44470 | 24.14610 | 23803 ft | 436 kts | 197° |
| 2026-05-07 13:00 | 58.41515 | 24.13338 | 24238 ft | 434 kts | 197° |
| 2026-05-07 13:00 | 58.38582 | 24.12077 | 24708 ft | 432 kts | 197° |
| 2026-05-07 13:01 | 58.35647 | 24.10819 | 25173 ft | 430 kts | 198° |
| 2026-05-07 13:01 | 58.32735 | 24.09571 | 25660 ft | 428 kts | 198° |
| 2026-05-07 13:01 | 58.29829 | 24.08327 | 26137 ft | 426 kts | 198° |
| 2026-05-07 13:01 | 58.26935 | 24.07092 | 26616 ft | 424 kts | 198° |
| 2026-05-07 13:02 | 58.24077 | 24.05873 | 27070 ft | 422 kts | 198° |
| 2026-05-07 13:02 | 58.21209 | 24.04654 | 27540 ft | 420 kts | 198° |
| 2026-05-07 13:02 | 58.18365 | 24.03447 | 28014 ft | 418 kts | 198° |
| 2026-05-07 13:02 | 58.15565 | 24.02260 | 28478 ft | 416 kts | 198° |
| 2026-05-07 13:03 | 58.12748 | 24.01067 | 28928 ft | 414 kts | 198° |
| 2026-05-07 13:03 | 58.09943 | 23.99880 | 29361 ft | 412 kts | 198° |
| 2026-05-07 13:03 | 58.07157 | 23.98704 | 29797 ft | 410 kts | 199° |
| 2026-05-07 13:03 | 58.04368 | 23.97527 | 30197 ft | 408 kts | 199° |
| 2026-05-07 13:04 | 58.01602 | 23.96363 | 30510 ft | 407 kts | 199° |
| 2026-05-07 13:04 | 57.98834 | 23.95201 | 30807 ft | 406 kts | 199° |
| 2026-05-07 13:04 | 57.96069 | 23.94043 | 31080 ft | 406 kts | 199° |
| 2026-05-07 13:04 | 57.93311 | 23.92887 | 31354 ft | 406 kts | 199° |
| 2026-05-07 13:05 | 57.90563 | 23.91744 | 31621 ft | 406 kts | 198° |
| 2026-05-07 13:05 | 57.87776 | 23.90753 | 31882 ft | 406 kts | 196° |
| 2026-05-07 13:05 | 57.84989 | 23.89830 | 32145 ft | 406 kts | 196° |
| 2026-05-07 13:05 | 57.82204 | 23.88915 | 32387 ft | 406 kts | 196° |
| 2026-05-07 13:06 | 57.79429 | 23.88002 | 32611 ft | 406 kts | 196° |
| 2026-05-07 13:06 | 57.76646 | 23.87087 | 32847 ft | 405 kts | 196° |
| 2026-05-07 13:06 | 57.73894 | 23.86184 | 33089 ft | 405 kts | 196° |
| 2026-05-07 13:06 | 57.71085 | 23.85263 | 33305 ft | 405 kts | 196° |
| 2026-05-07 13:07 | 57.68351 | 23.84365 | 33505 ft | 404 kts | 196° |
| 2026-05-07 13:07 | 57.65588 | 23.83459 | 33702 ft | 404 kts | 196° |
| 2026-05-07 13:07 | 57.62820 | 23.82557 | 33905 ft | 404 kts | 196° |
| 2026-05-07 13:07 | 57.60042 | 23.81649 | 34041 ft | 405 kts | 196° |
| 2026-05-07 13:08 | 57.54461 | 23.79827 | 34028 ft | 407 kts | 196° |
| 2026-05-07 13:08 | 57.48876 | 23.78016 | 34008 ft | 408 kts | 196° |
| 2026-05-07 13:09 | 57.44224 | 23.76512 | 34002 ft | 408 kts | 196° |
| 2026-05-07 13:09 | 57.38626 | 23.74704 | 34000 ft | 409 kts | 196° |
| 2026-05-07 13:10 | 57.33023 | 23.72900 | 33998 ft | 409 kts | 196° |
| 2026-05-07 13:10 | 57.27407 | 23.71101 | 33992 ft | 409 kts | 196° |
| 2026-05-07 13:11 | 57.21781 | 23.69302 | 33996 ft | 410 kts | 196° |
| 2026-05-07 13:11 | 57.16159 | 23.67513 | 33995 ft | 410 kts | 195° |
| 2026-05-07 13:12 | 57.10521 | 23.65717 | 33983 ft | 410 kts | 195° |
| 2026-05-07 13:12 | 57.04935 | 23.63951 | 33990 ft | 410 kts | 195° |
| 2026-05-07 13:13 | 56.99301 | 23.62173 | 33989 ft | 411 kts | 195° |
| 2026-05-07 13:13 | 56.93667 | 23.60402 | 33990 ft | 410 kts | 195° |
| 2026-05-07 13:14 | 56.88038 | 23.58634 | 33990 ft | 410 kts | 195° |
| 2026-05-07 13:14 | 56.82403 | 23.56868 | 33992 ft | 410 kts | 195° |
| 2026-05-07 13:15 | 56.76783 | 23.55113 | 33991 ft | 410 kts | 195° |
| 2026-05-07 13:15 | 56.71199 | 23.53378 | 33988 ft | 409 kts | 195° |
| 2026-05-07 13:16 | 56.65579 | 23.51635 | 33989 ft | 409 kts | 195° |
| 2026-05-07 13:16 | 56.59957 | 23.49898 | 33986 ft | 409 kts | 195° |
| 2026-05-07 13:17 | 56.54352 | 23.48172 | 33983 ft | 409 kts | 195° |
| 2026-05-07 13:17 | 56.48750 | 23.46455 | 33978 ft | 408 kts | 195° |
| 2026-05-07 13:18 | 56.43145 | 23.44739 | 33984 ft | 408 kts | 195° |
| 2026-05-07 13:18 | 56.37540 | 23.43022 | 33979 ft | 408 kts | 195° |
| 2026-05-07 13:19 | 56.31914 | 23.41796 | 33975 ft | 410 kts | 192° |
| 2026-05-07 13:19 | 56.26234 | 23.40745 | 33975 ft | 410 kts | 192° |
| 2026-05-07 13:20 | 56.20560 | 23.39691 | 33976 ft | 409 kts | 192° |
| 2026-05-07 13:20 | 56.14904 | 23.38640 | 33978 ft | 409 kts | 192° |
| 2026-05-07 13:21 | 56.09248 | 23.37590 | 33995 ft | 408 kts | 192° |
| 2026-05-07 13:21 | 56.03607 | 23.36546 | 33982 ft | 407 kts | 192° |
| 2026-05-07 13:22 | 55.97966 | 23.35503 | 33989 ft | 407 kts | 192° |
| 2026-05-07 13:22 | 55.92334 | 23.34466 | 33991 ft | 406 kts | 192° |
| 2026-05-07 13:23 | 55.86710 | 23.33433 | 33989 ft | 406 kts | 192° |
| 2026-05-07 13:23 | 55.81083 | 23.32401 | 33986 ft | 406 kts | 192° |
| 2026-05-07 13:24 | 55.75487 | 23.31378 | 33986 ft | 406 kts | 192° |
| 2026-05-07 13:24 | 55.69865 | 23.30355 | 33971 ft | 406 kts | 192° |
| 2026-05-07 13:25 | 55.64240 | 23.29336 | 33965 ft | 406 kts | 192° |
| 2026-05-07 13:25 | 55.58618 | 23.28318 | 33956 ft | 406 kts | 192° |
| 2026-05-07 13:26 | 55.52999 | 23.27304 | 33946 ft | 406 kts | 192° |
| 2026-05-07 13:26 | 55.47379 | 23.26290 | 33947 ft | 406 kts | 192° |
| 2026-05-07 13:27 | 55.41757 | 23.25279 | 33947 ft | 406 kts | 192° |
| 2026-05-07 13:27 | 55.36136 | 23.24273 | 33946 ft | 406 kts | 192° |
| 2026-05-07 13:28 | 55.30520 | 23.23274 | 33936 ft | 406 kts | 192° |
| 2026-05-07 13:28 | 55.24926 | 23.22277 | 33942 ft | 406 kts | 192° |
| 2026-05-07 13:29 | 55.19316 | 23.21280 | 33939 ft | 406 kts | 192° |
| 2026-05-07 13:29 | 55.13683 | 23.20285 | 33939 ft | 406 kts | 192° |
| 2026-05-07 13:30 | 55.08078 | 23.19296 | 33933 ft | 406 kts | 192° |
| 2026-05-07 13:30 | 55.02452 | 23.18305 | 33942 ft | 405 kts | 192° |
| 2026-05-07 13:31 | 54.96843 | 23.17319 | 33931 ft | 405 kts | 192° |
| 2026-05-07 13:31 | 54.91220 | 23.16339 | 33931 ft | 405 kts | 191° |
| 2026-05-07 13:32 | 54.85647 | 23.15366 | 33933 ft | 405 kts | 191° |
| 2026-05-07 13:32 | 54.80029 | 23.14388 | 33933 ft | 405 kts | 191° |
| 2026-05-07 13:33 | 54.74410 | 23.13415 | 33932 ft | 405 kts | 191° |
| 2026-05-07 13:33 | 54.68799 | 23.12446 | 33929 ft | 405 kts | 191° |
| 2026-05-07 13:34 | 54.60396 | 23.10994 | 33928 ft | 405 kts | 191° |
| 2026-05-07 13:35 | 54.54775 | 23.10024 | 33927 ft | 405 kts | 191° |
| 2026-05-07 13:35 | 54.49214 | 23.09072 | 33924 ft | 405 kts | 191° |
| 2026-05-07 13:36 | 54.43586 | 23.08111 | 33923 ft | 405 kts | 191° |
| 2026-05-07 13:36 | 54.37990 | 23.07157 | 33927 ft | 405 kts | 191° |
| 2026-05-07 13:37 | 54.32387 | 23.06171 | 33913 ft | 403 kts | 193° |
| 2026-05-07 13:37 | 54.27087 | 23.03568 | 33925 ft | 395 kts | 205° |
| 2026-05-07 13:38 | 54.21972 | 23.00073 | 33918 ft | 395 kts | 205° |
| 2026-05-07 13:38 | 54.16857 | 22.96622 | 33912 ft | 396 kts | 205° |
| 2026-05-07 13:39 | 54.11726 | 22.93197 | 33913 ft | 395 kts | 205° |
| 2026-05-07 13:39 | 54.06636 | 22.89631 | 33913 ft | 394 kts | 210° |
| 2026-05-07 13:40 | 54.01944 | 22.84980 | 33913 ft | 392 kts | 213° |
| 2026-05-07 13:40 | 53.97259 | 22.80194 | 33910 ft | 392 kts | 213° |
| 2026-05-07 13:41 | 53.92575 | 22.75443 | 33907 ft | 392 kts | 213° |
| 2026-05-07 13:41 | 53.87885 | 22.70713 | 33909 ft | 392 kts | 213° |
| 2026-05-07 13:42 | 53.83236 | 22.66037 | 33903 ft | 392 kts | 213° |
| 2026-05-07 13:42 | 53.78550 | 22.61339 | 33907 ft | 392 kts | 212° |
| 2026-05-07 13:43 | 53.73851 | 22.56635 | 33910 ft | 392 kts | 212° |
| 2026-05-07 13:43 | 53.69161 | 22.51956 | 33906 ft | 391 kts | 212° |
| 2026-05-07 13:44 | 53.64466 | 22.47283 | 33907 ft | 392 kts | 212° |
| 2026-05-07 13:44 | 53.59796 | 22.42647 | 33911 ft | 391 kts | 212° |
| 2026-05-07 13:45 | 53.55103 | 22.38002 | 33905 ft | 392 kts | 212° |
| 2026-05-07 13:45 | 53.50395 | 22.33351 | 33907 ft | 392 kts | 212° |
| 2026-05-07 13:46 | 53.45692 | 22.28719 | 33909 ft | 392 kts | 212° |
| 2026-05-07 13:46 | 53.40991 | 22.24103 | 33910 ft | 392 kts | 212° |
| 2026-05-07 13:47 | 53.36321 | 22.19525 | 33914 ft | 391 kts | 212° |
| 2026-05-07 13:47 | 53.31579 | 22.14891 | 33918 ft | 392 kts | 212° |
| 2026-05-07 13:48 | 53.26899 | 22.10327 | 33917 ft | 392 kts | 211° |
| 2026-05-07 13:48 | 53.22186 | 22.05746 | 33915 ft | 392 kts | 211° |
| 2026-05-07 13:49 | 53.17475 | 22.01174 | 33913 ft | 392 kts | 211° |
| 2026-05-07 13:49 | 53.12752 | 21.96604 | 33917 ft | 392 kts | 211° |
| 2026-05-07 13:50 | 53.08023 | 21.92045 | 33920 ft | 392 kts | 211° |
| 2026-05-07 13:50 | 53.03288 | 21.87486 | 33914 ft | 393 kts | 211° |
| 2026-05-07 13:51 | 52.98561 | 21.82945 | 33922 ft | 393 kts | 211° |
| 2026-05-07 13:51 | 52.93848 | 21.78432 | 33914 ft | 393 kts | 211° |
| 2026-05-07 13:52 | 52.89106 | 21.73905 | 33914 ft | 393 kts | 210° |
| 2026-05-07 13:52 | 52.84367 | 21.69393 | 33916 ft | 394 kts | 210° |
| 2026-05-07 13:53 | 52.79614 | 21.64874 | 33922 ft | 394 kts | 210° |
| 2026-05-07 13:53 | 52.74858 | 21.60367 | 33930 ft | 395 kts | 210° |
| 2026-05-07 13:54 | 52.70086 | 21.55851 | 33922 ft | 395 kts | 210° |
| 2026-05-07 13:54 | 52.65305 | 21.51343 | 33918 ft | 396 kts | 210° |
| 2026-05-07 13:55 | 52.61332 | 21.47605 | 33927 ft | 396 kts | 210° |
| 2026-05-07 13:55 | 52.56532 | 21.43102 | 33933 ft | 397 kts | 210° |
| 2026-05-07 13:56 | 52.50955 | 21.37895 | 33933 ft | 397 kts | 210° |
| 2026-05-07 13:56 | 52.46935 | 21.34129 | 33938 ft | 397 kts | 210° |
| 2026-05-07 13:57 | 52.42127 | 21.29640 | 33939 ft | 398 kts | 210° |
| 2026-05-07 13:57 | 52.37307 | 21.25157 | 33934 ft | 398 kts | 209° |
| 2026-05-07 13:58 | 52.32486 | 21.20697 | 33950 ft | 398 kts | 209° |
| 2026-05-07 13:58 | 52.27698 | 21.16272 | 33950 ft | 399 kts | 209° |
| 2026-05-07 13:59 | 52.22866 | 21.11813 | 33967 ft | 399 kts | 209° |
| 2026-05-07 13:59 | 52.18018 | 21.07351 | 33969 ft | 400 kts | 209° |
| 2026-05-07 14:00 | 52.12859 | 21.04161 | 33968 ft | 400 kts | 193° |
| 2026-05-07 14:00 | 52.07380 | 21.02450 | 33964 ft | 401 kts | 192° |
| 2026-05-07 14:01 | 52.01894 | 21.00705 | 33959 ft | 401 kts | 193° |
| 2026-05-07 14:01 | 51.96410 | 20.98922 | 33956 ft | 402 kts | 193° |
| 2026-05-07 14:02 | 51.90916 | 20.97143 | 33943 ft | 403 kts | 193° |
| 2026-05-07 14:02 | 51.85405 | 20.95364 | 33939 ft | 404 kts | 193° |
| 2026-05-07 14:03 | 51.79932 | 20.93592 | 33935 ft | 404 kts | 193° |
| 2026-05-07 14:03 | 51.74408 | 20.91812 | 33931 ft | 405 kts | 193° |
| 2026-05-07 14:04 | 51.68878 | 20.90036 | 33928 ft | 405 kts | 193° |
| 2026-05-07 14:04 | 51.63337 | 20.88256 | 33931 ft | 406 kts | 193° |
| 2026-05-07 14:05 | 51.57786 | 20.86476 | 33935 ft | 407 kts | 193° |
| 2026-05-07 14:05 | 51.52236 | 20.84711 | 33935 ft | 407 kts | 193° |
| 2026-05-07 14:06 | 51.46683 | 20.82940 | 33929 ft | 407 kts | 193° |
| 2026-05-07 14:06 | 51.41127 | 20.81170 | 33927 ft | 407 kts | 193° |
| 2026-05-07 14:07 | 51.35561 | 20.79407 | 33929 ft | 407 kts | 193° |
| 2026-05-07 14:07 | 51.30001 | 20.77646 | 33931 ft | 407 kts | 193° |
| 2026-05-07 14:08 | 51.24470 | 20.75899 | 33932 ft | 408 kts | 193° |
| 2026-05-07 14:08 | 51.18896 | 20.74150 | 33927 ft | 408 kts | 193° |
| 2026-05-07 14:09 | 51.13327 | 20.72404 | 33925 ft | 408 kts | 193° |
| 2026-05-07 14:09 | 51.07742 | 20.70656 | 33930 ft | 409 kts | 193° |
| 2026-05-07 14:10 | 51.02166 | 20.68912 | 33932 ft | 409 kts | 193° |
| 2026-05-07 14:10 | 50.96581 | 20.67165 | 33926 ft | 409 kts | 193° |
| 2026-05-07 14:11 | 50.91002 | 20.65429 | 33926 ft | 409 kts | 193° |
| 2026-05-07 14:11 | 50.85411 | 20.63692 | 33925 ft | 409 kts | 193° |
| 2026-05-07 14:12 | 50.79845 | 20.61973 | 33927 ft | 409 kts | 193° |
| 2026-05-07 14:12 | 50.74256 | 20.60247 | 33918 ft | 410 kts | 193° |
| 2026-05-07 14:13 | 50.68650 | 20.58520 | 33920 ft | 409 kts | 193° |
| 2026-05-07 14:13 | 50.63053 | 20.56802 | 33917 ft | 410 kts | 193° |
| 2026-05-07 14:14 | 50.57457 | 20.55090 | 33919 ft | 410 kts | 193° |
| 2026-05-07 14:14 | 50.51861 | 20.53380 | 33923 ft | 409 kts | 193° |
| 2026-05-07 14:15 | 50.46259 | 20.51678 | 33924 ft | 409 kts | 193° |
| 2026-05-07 14:15 | 50.40711 | 20.49993 | 33922 ft | 409 kts | 193° |
| 2026-05-07 14:16 | 50.35127 | 20.48301 | 33923 ft | 409 kts | 193° |
| 2026-05-07 14:16 | 50.29534 | 20.46610 | 33922 ft | 408 kts | 194° |
| 2026-05-07 14:17 | 50.23956 | 20.44927 | 33929 ft | 408 kts | 194° |
| 2026-05-07 14:17 | 50.18376 | 20.43239 | 33923 ft | 408 kts | 193° |
| 2026-05-07 14:18 | 50.12794 | 20.41566 | 33921 ft | 408 kts | 193° |
| 2026-05-07 14:18 | 50.07220 | 20.39897 | 33926 ft | 407 kts | 194° |
| 2026-05-07 14:19 | 50.01709 | 20.38243 | 33928 ft | 407 kts | 193° |
| 2026-05-07 14:19 | 49.96129 | 20.36575 | 33930 ft | 407 kts | 193° |
| 2026-05-07 14:20 | 49.90572 | 20.34926 | 33935 ft | 407 kts | 193° |
| 2026-05-07 14:20 | 49.85005 | 20.33270 | 33933 ft | 407 kts | 193° |
| 2026-05-07 14:21 | 49.79437 | 20.31620 | 33934 ft | 407 kts | 193° |
| 2026-05-07 14:21 | 49.73863 | 20.29972 | 33944 ft | 407 kts | 193° |
| 2026-05-07 14:22 | 49.68302 | 20.28332 | 33940 ft | 407 kts | 193° |
| 2026-05-07 14:22 | 49.62743 | 20.26694 | 33944 ft | 407 kts | 194° |
| 2026-05-07 14:23 | 49.57188 | 20.25065 | 33948 ft | 406 kts | 193° |
| 2026-05-07 14:23 | 49.51631 | 20.23435 | 33943 ft | 406 kts | 194° |
| 2026-05-07 14:24 | 49.46079 | 20.21823 | 33964 ft | 406 kts | 194° |
| 2026-05-07 14:24 | 49.40520 | 20.20209 | 33960 ft | 406 kts | 194° |
| 2026-05-07 14:25 | 49.35011 | 20.18601 | 33957 ft | 406 kts | 194° |
| 2026-05-07 14:25 | 49.29477 | 20.16916 | 33966 ft | 405 kts | 195° |
| 2026-05-07 14:26 | 49.23961 | 20.15098 | 33949 ft | 405 kts | 195° |
| 2026-05-07 14:26 | 49.18456 | 20.13289 | 33962 ft | 404 kts | 195° |
| 2026-05-07 14:27 | 49.12950 | 20.11489 | 33963 ft | 405 kts | 195° |
| 2026-05-07 14:27 | 49.07495 | 20.09711 | 33957 ft | 404 kts | 195° |
| 2026-05-07 14:28 | 49.01967 | 20.07924 | 33958 ft | 404 kts | 194° |
| 2026-05-07 14:28 | 48.96461 | 20.06251 | 33959 ft | 404 kts | 194° |
| 2026-05-07 14:29 | 48.90961 | 20.04567 | 33969 ft | 403 kts | 194° |
| 2026-05-07 14:29 | 48.85473 | 20.02885 | 33660 ft | 401 kts | 194° |
| 2026-05-07 14:29 | 48.82732 | 20.02043 | 33351 ft | 402 kts | 194° |
| 2026-05-07 14:30 | 48.80027 | 20.01210 | 33076 ft | 403 kts | 194° |
| 2026-05-07 14:30 | 48.77224 | 20.00353 | 32803 ft | 405 kts | 194° |
| 2026-05-07 14:30 | 48.74496 | 19.99521 | 32503 ft | 406 kts | 194° |
| 2026-05-07 14:30 | 48.71731 | 19.98682 | 31900 ft | 404 kts | 194° |
| 2026-05-07 14:31 | 48.68976 | 19.97843 | 31222 ft | 403 kts | 194° |
| 2026-05-07 14:31 | 48.66216 | 19.97002 | 30505 ft | 404 kts | 194° |
| 2026-05-07 14:31 | 48.63460 | 19.96163 | 29713 ft | 405 kts | 194° |
| 2026-05-07 14:31 | 48.60690 | 19.95321 | 28844 ft | 407 kts | 194° |
| 2026-05-07 14:32 | 48.57911 | 19.94480 | 28041 ft | 407 kts | 194° |
| 2026-05-07 14:32 | 48.55137 | 19.93639 | 27255 ft | 407 kts | 194° |
| 2026-05-07 14:32 | 48.52364 | 19.92798 | 26460 ft | 406 kts | 193° |
| 2026-05-07 14:32 | 48.49618 | 19.91966 | 25664 ft | 408 kts | 193° |
| 2026-05-07 14:33 | 48.46788 | 19.91110 | 24848 ft | 412 kts | 193° |
| 2026-05-07 14:33 | 48.43963 | 19.90257 | 24109 ft | 416 kts | 193° |
| 2026-05-07 14:33 | 48.41115 | 19.89399 | 23391 ft | 419 kts | 193° |
| 2026-05-07 14:33 | 48.38306 | 19.88555 | 22663 ft | 417 kts | 193° |
| 2026-05-07 14:34 | 48.35462 | 19.87701 | 22103 ft | 421 kts | 193° |
| 2026-05-07 14:34 | 48.32524 | 19.86816 | 21735 ft | 436 kts | 192° |
| 2026-05-07 14:34 | 48.29560 | 19.85926 | 21370 ft | 429 kts | 192° |
| 2026-05-07 14:34 | 48.26657 | 19.85058 | 20844 ft | 420 kts | 192° |
| 2026-05-07 14:35 | 48.23810 | 19.84210 | 20256 ft | 413 kts | 192° |
| 2026-05-07 14:35 | 48.21022 | 19.83375 | 19673 ft | 407 kts | 192° |
| 2026-05-07 14:35 | 48.18266 | 19.82551 | 19101 ft | 401 kts | 192° |
| 2026-05-07 14:35 | 48.15540 | 19.81740 | 18544 ft | 397 kts | 192° |
| 2026-05-07 14:36 | 48.12834 | 19.80933 | 17885 ft | 395 kts | 192° |
| 2026-05-07 14:36 | 48.10142 | 19.80131 | 17192 ft | 394 kts | 192° |
| 2026-05-07 14:36 | 48.07457 | 19.79335 | 16612 ft | 391 kts | 192° |
| 2026-05-07 14:36 | 48.04800 | 19.78544 | 16088 ft | 386 kts | 192° |
| 2026-05-07 14:37 | 48.02249 | 19.77786 | 15589 ft | 382 kts | 192° |
| 2026-05-07 14:37 | 47.97005 | 19.76234 | 14655 ft | 377 kts | 192° |
| 2026-05-07 14:37 | 47.94435 | 19.75472 | 14259 ft | 376 kts | 192° |
| 2026-05-07 14:38 | 47.91902 | 19.74723 | 13870 ft | 374 kts | 192° |
| 2026-05-07 14:38 | 47.89353 | 19.73971 | 13437 ft | 373 kts | 192° |
| 2026-05-07 14:38 | 47.86821 | 19.73224 | 12935 ft | 369 kts | 192° |
| 2026-05-07 14:38 | 47.84308 | 19.72485 | 12414 ft | 367 kts | 192° |
| 2026-05-07 14:39 | 47.81823 | 19.71753 | 11953 ft | 360 kts | 192° |
| 2026-05-07 14:39 | 47.79401 | 19.71040 | 11647 ft | 346 kts | 192° |
| 2026-05-07 14:39 | 47.77089 | 19.70362 | 11421 ft | 331 kts | 192° |
| 2026-05-07 14:39 | 47.74885 | 19.69716 | 11137 ft | 314 kts | 192° |
| 2026-05-07 14:40 | 47.72797 | 19.69103 | 10731 ft | 299 kts | 192° |
| 2026-05-07 14:40 | 47.70826 | 19.68526 | 10388 ft | 285 kts | 192° |
| 2026-05-07 14:40 | 47.68924 | 19.67969 | 10159 ft | 271 kts | 192° |
| 2026-05-07 14:40 | 47.67082 | 19.67430 | 9935 ft | 271 kts | 192° |
| 2026-05-07 14:41 | 47.65237 | 19.66889 | 9632 ft | 270 kts | 192° |
| 2026-05-07 14:41 | 47.63393 | 19.66350 | 9269 ft | 271 kts | 192° |
| 2026-05-07 14:41 | 47.61539 | 19.65807 | 8896 ft | 271 kts | 192° |
| 2026-05-07 14:41 | 47.59707 | 19.65273 | 8530 ft | 267 kts | 192° |
| 2026-05-07 14:42 | 47.57887 | 19.64745 | 8161 ft | 266 kts | 192° |
| 2026-05-07 14:42 | 47.56070 | 19.64216 | 7803 ft | 266 kts | 192° |
| 2026-05-07 14:42 | 47.54848 | 19.63859 | 7591 ft | 265 kts | 192° |
| 2026-05-07 14:42 | 47.53035 | 19.63332 | 7252 ft | 265 kts | 192° |
| 2026-05-07 14:43 | 47.51247 | 19.62813 | 6901 ft | 265 kts | 192° |
| 2026-05-07 14:43 | 47.49428 | 19.62283 | 6555 ft | 266 kts | 192° |
| 2026-05-07 14:43 | 47.47618 | 19.61758 | 6205 ft | 263 kts | 192° |
| 2026-05-07 14:43 | 47.45833 | 19.61241 | 5863 ft | 259 kts | 193° |
| 2026-05-07 14:44 | 47.44102 | 19.60739 | 5587 ft | 248 kts | 192° |
| 2026-05-07 14:44 | 47.42428 | 19.60253 | 5231 ft | 242 kts | 192° |
| 2026-05-07 14:44 | 47.40786 | 19.59777 | 5029 ft | 239 kts | 192° |
| 2026-05-07 14:44 | 47.39172 | 19.59310 | 4832 ft | 232 kts | 192° |
| 2026-05-07 14:45 | 47.37644 | 19.58868 | 4642 ft | 220 kts | 192° |
| 2026-05-07 14:45 | 47.36183 | 19.58418 | 4421 ft | 209 kts | 197° |
| 2026-05-07 14:45 | 47.34921 | 19.57477 | 4113 ft | 201 kts | 220° |
| 2026-05-07 14:45 | 47.33891 | 19.56063 | 3984 ft | 205 kts | 224° |
| 2026-05-07 14:46 | 47.32859 | 19.54605 | 3973 ft | 205 kts | 224° |
| 2026-05-07 14:46 | 47.31820 | 19.53173 | 3983 ft | 204 kts | 223° |
| 2026-05-07 14:46 | 47.30833 | 19.51665 | 3981 ft | 205 kts | 236° |
| 2026-05-07 14:46 | 47.30385 | 19.49700 | 3982 ft | 206 kts | 269° |
| 2026-05-07 14:47 | 47.30782 | 19.47813 | 3921 ft | 191 kts | 300° |
| 2026-05-07 14:47 | 47.31640 | 19.46352 | 3678 ft | 187 kts | 311° |
| 2026-05-07 14:47 | 47.32554 | 19.45023 | 3408 ft | 183 kts | 311° |
| 2026-05-07 14:47 | 47.33428 | 19.43683 | 3130 ft | 179 kts | 309° |
| 2026-05-07 14:48 | 47.34265 | 19.42350 | 2862 ft | 175 kts | 308° |
| 2026-05-07 14:48 | 47.35078 | 19.41043 | 2600 ft | 171 kts | 308° |
| 2026-05-07 14:48 | 47.35863 | 19.39780 | 2364 ft | 166 kts | 308° |
| 2026-05-07 14:48 | 47.36627 | 19.38548 | 2145 ft | 162 kts | 308° |
| 2026-05-07 14:49 | 47.37354 | 19.37379 | 1974 ft | 144 kts | 308° |
| 2026-05-07 14:49 | 47.38023 | 19.36299 | 1771 ft | 142 kts | 308° |
| 2026-05-07 14:49 | 47.38691 | 19.35222 | 1562 ft | 142 kts | 308° |
| 2026-05-07 14:49 | 47.39356 | 19.34149 | 1377 ft | 142 kts | 307° |
| 2026-05-07 14:50 | 47.40012 | 19.33082 | 1182 ft | 140 kts | 307° |
| 2026-05-07 14:50 | 47.40652 | 19.32018 | 971 ft | 137 kts | 308° |
| 2026-05-07 14:50 | 47.41296 | 19.30992 | 751 ft | 135 kts | 308° |
| 2026-05-07 14:50 | 47.41925 | 19.29975 | 598 ft | 134 kts | 309° |
| 2026-05-07 14:51 | 47.42561 | 19.28964 | 459 ft | 131 kts | 308° |
| 2026-05-07 14:51 | 47.43083 | 19.28114 | 461 ft | 86 kts | 313° |
| 2026-05-07 14:51 | 47.43311 | 19.27708 | 465 ft | 28 kts | 304° |
| 2026-05-07 14:51 | 47.43349 | 19.27551 | 467 ft | 16 kts | 283° |
| 2026-05-07 14:52 | 47.43374 | 19.27377 | 464 ft | 18 kts | 282° |
| 2026-05-07 14:52 | 47.43404 | 19.27184 | 464 ft | 20 kts | 283° |
| 2026-05-07 14:52 | 47.43426 | 19.27061 | 464 ft | 10 kts | 285° |
| 2026-05-07 14:52 | 47.43385 | 19.27066 | 463 ft | 8 kts | 139° |
| 2026-05-07 14:53 | 47.43330 | 19.27076 | 463 ft | 10 kts | 216° |
| 2026-05-07 14:53 | 47.43297 | 19.26979 | 463 ft | 12 kts | 262° |
| 2026-05-07 14:53 | 47.43341 | 19.26873 | 463 ft | 13 kts | 312° |
| 2026-05-07 14:53 | 47.43387 | 19.26798 | 463 ft | 5 kts | 313° |
| 2026-05-07 14:54 | 47.43391 | 19.26768 | 462 ft | 2 kts | 246° |
| 2026-05-07 14:54 | 47.43389 | 19.26764 | 463 ft | 0 kts | 239° |
| 2026-05-07 14:55 | 47.43387 | 19.26758 | 463 ft | 2 kts | 235° |
| 2026-05-07 14:55 | 47.43373 | 19.26736 | 462 ft | 4 kts | 223° |
| 2026-05-07 14:56 | 47.43360 | 19.26718 | 463 ft | 2 kts | 222° |
| 2026-05-07 14:56 | 47.43356 | 19.26713 | 463 ft | 0 kts | 222° |